Accueil
METAR-TAF:

METAR-TAF

Aéroports :

Aéroport d'Anvers

Anvers, Belgique

latitude: 51-12N, longitude: 004-28E, altitude: 12 m

Observation

Le bulletin a été fait il y a 29 minutes, à 18:50 UTC
Vent 4 kt de ouest, variant entre sud-ouest et ouest/nord-ouest
Température 17°C
Humidité 63%
Pression 1013 hPa
Visibilité 10 km ou plus
pas de nuages en-dessous de 1500 mètres et pas de cumulonimbus.

METAR: EBAW 131850Z 26004KT 230V290 CAVOK 17/10 Q1013 NOSIG

Heure: 21:19 (19:19 UTC)

Prévision

Le bulletin a été fait il y a 2 heures et 19 minutes, à 17:00 UTC
Prévision valable du 13 à 18 UTC au 14 à 03 UTC
Vent 7 kt de ouest
Visibilité 10 km ou plus
Quelques nuages à une hauteur de 3000 ft

TAF: EBAW 131700Z 1318/1403 27007KT 9999 FEW030

Observations et prévisions météorologiques de plus de 4000 aéroports (messages METAR et TAF).

Les stations disponibles sont représentées par des disques jaunes et rouges sur la carte.

Passer la souris dessus pour voir le nom de la station.

Cliquer dessus pour voir les observations et prévisions météorologiques.

Pour changer de carte: cliquez sur les boutons verts avec une croix noire pour zoomer, sur le bouton vert avec un tiret pour effectuer un zoom arrière, ou sur les flèches vertes pour les cartes adjacentes.


METAR-TAF: